Nearby METAR Reports

 

KLWM - Lawrence,MA, USA
Distance from station: NE 12mi, 19km
Updated: Wed, 16-Aug-2017 12:54pm EDT
Partly Cloudy
Partly Cloudy
 Wind from NW
Wind: NW 13 mph , 20 km/h
Temperature: 81°F , 27°C
Heat Index: 82°F , 28°C
Dew Point: 61°F , 16°C
Humidity: 51%
Barometer: 29.95 inHg , 1014.2 hPa
Clouds: Partly Cloudy
Visibility: 10 miles , 16 km
Cloud details: Partly Cloudy 4400 ft
2017/08/16 16:54 KLWM 161654Z 31011KT 10SM SCT044 27/16 A2995 RMK AO2 SLP140 T02720156
KBED - Bedford,MA, USA
Distance from station: SSE 12mi, 19km
Updated: Wed, 16-Aug-2017 12:56pm EDT
Partly Cloudy
Partly Cloudy
 Wind from NNW
Wind: NNW 13 mph , 20 km/h
Temperature: 79°F , 26°C
Dew Point: 57°F , 14°C
Humidity: 48%
Barometer: 29.92 inHg , 1013.2 hPa
Clouds: Partly Cloudy
Visibility: 10 miles , 16 km
Cloud details: Few Clouds 6000 ft
Partly Cloudy 22000 ft
2017/08/16 16:56 KBED 161656Z 34011KT 10SM FEW060 SCT220 26/14 A2992 RMK AO2 SLP144 T02610139

Metar display script from Saratoga-Weather.org